Nautilus Survey — LIXR — position and weather

sailwx.info

Track history (hours):
 
Tides and Currents Weather Stations Pressure Air Temp Water Temp Dewpoint Dewpoint Depression Visibility Wind Speed Wind Dir Waves Ship Positions

Nautilus Survey

Last reported at 2015-May-19 16:27 UTC. Time now 2015-May-24 17:22 UTC.
Position N 66°51' E 013°34'.

Length 22 m; draft 2 m.

Type: Dredging. MMSI: 259464000.

Date/timePositionNaut miles runAvg speedWind from/ knotsBaromVisibWave heightAir tempDewpointWater temp
2015-May-19 16:27N 66°51' E 013°34'8 8.3
2015-May-19 15:33N 66°59' E 013°34'10 9.7
2015-May-19 14:33N 67°04' E 013°54'5 5.3
2015-May-19 13:33N 67°09' E 014°01'1 1.3
2015-May-19 12:33N 67°08' E 013°58'0 0.1
2015-May-19 11:33N 67°08' E 013°58'1 1.2
2015-May-19 10:33N 67°09' E 014°00'0 0.3
2015-May-19 09:33N 67°09' E 014°01'0 0.2
2015-May-19 08:33N 67°09' E 014°01'0 0.1
2015-May-19 07:34N 67°09' E 014°01'0 0.1
2015-May-19 06:33N 67°09' E 014°01'1 1.2
2015-May-19 05:33N 67°08' E 013°58'0 0.0
2015-May-19 04:33N 67°08' E 013°58'0 0.0
2015-May-19 03:33N 67°08' E 013°58'0 0.0
2015-May-19 02:33N 67°08' E 013°58'0 0.0
2015-May-19 01:33N 67°08' E 013°58'0 0.0
2015-May-19 00:33N 67°08' E 013°58'0 0.0
2015-May-18 23:33N 67°08' E 013°58'0 0.0
2015-May-18 22:33N 67°08' E 013°58'0 0.0
2015-May-18 21:34N 67°08' E 013°58'0 0.0
2015-May-18 20:33N 67°08' E 013°58'0 0.0
2015-May-18 19:33N 67°08' E 013°58'0 0.0
2015-May-18 18:33N 67°08' E 013°58'1 1.4
2015-May-18 17:33N 67°09' E 014°01'0 0.3
2015-May-18 16:33N 67°09' E 014°02'0 0.4
2015-May-18 15:33N 67°09' E 014°01'0 0.3
2015-May-18 14:33N 67°09' E 014°01'0 0.0
2015-May-18 13:33N 67°09' E 014°01'0 0.0
2015-May-18 12:33N 67°09' E 014°01'0 0.1
2015-May-18 11:34N 67°09' E 014°00'0 0.5
2015-May-18 10:34N 67°09' E 014°02'0 0.2
2015-May-18 09:33N 67°09' E 014°02'1 0.6
2015-May-18 08:33N 67°09' E 014°01'0 0.1
2015-May-18 07:33N 67°09' E 014°01'0 0.3
2015-May-18 06:34N 67°09' E 014°01'0 0.2
2015-May-18 05:34N 67°09' E 014°01'0 0.0
2015-May-18 04:34N 67°09' E 014°01'0 0.0
2015-May-18 03:33N 67°09' E 014°01'0 0.0
2015-May-18 02:33N 67°09' E 014°01'0 0.0
2015-May-18 01:33N 67°09' E 014°01'0 0.0
2015-May-18 00:33N 67°09' E 014°01'0 0.0
2015-May-17 23:33N 67°09' E 014°01'0 0.0
2015-May-17 22:33N 67°09' E 014°01'0 0.0
2015-May-17 21:33N 67°09' E 014°01'0 0.0
2015-May-17 20:33N 67°09' E 014°01'0 0.0
2015-May-17 19:34N 67°09' E 014°01'0 0.0
2015-May-17 18:33N 67°09' E 014°01'0 0.0
2015-May-17 17:34N 67°09' E 014°01'0 0.2
2015-May-17 16:33N 67°09' E 014°01'0 0.2
2015-May-17 15:33N 67°09' E 014°01'0 0.1
2015-May-17 14:31N 67°09' E 014°01'0 0.0
2015-May-17 13:34N 67°09' E 014°01'0 0.2
2015-May-17 12:33N 67°09' E 014°01'0 0.3
2015-May-17 11:33N 67°09' E 014°01'0 0.5
2015-May-17 10:33N 67°09' E 014°02'0 0.1
2015-May-17 09:33N 67°09' E 014°02'0 0.3
2015-May-17 08:33N 67°09' E 014°01'0 0.2
2015-May-17 07:33N 67°09' E 014°00'0 0.1
2015-May-17 06:33N 67°09' E 014°01'0 0.3
2015-May-17 05:34N 67°09' E 014°01'0 0.0
2015-May-17 04:33N 67°09' E 014°01'0 0.0
2015-May-17 03:33N 67°09' E 014°01'0 0.0
2015-May-17 02:33N 67°09' E 014°01'0 0.0
2015-May-17 01:34N 67°09' E 014°01'0 0.0
2015-May-17 00:34N 67°09' E 014°01'0 0.0
2015-May-16 23:33N 67°09' E 014°01'0 0.0
2015-May-16 22:33N 67°09' E 014°01'0 0.0
2015-May-16 21:33N 67°09' E 014°01'0 0.0
2015-May-16 20:34N 67°09' E 014°01'0 0.0
2015-May-16 19:33N 67°09' E 014°01'0 0.0
2015-May-16 18:34N 67°09' E 014°01'1 0.6
2015-May-16 17:33N 67°09' E 014°02'0 0.1
2015-May-16 16:33N 67°09' E 014°01'0 0.4
2015-May-16 15:33N 67°09' E 014°01'0 0.1
2015-May-16 14:33N 67°09' E 014°01'0 0.2
2015-May-16 13:33N 67°09' E 014°01'0 0.3
2015-May-16 12:33N 67°09' E 014°02'1 1.1
2015-May-16 11:33N 67°08' E 013°59'1 1.0
2015-May-16 10:33N 67°09' E 014°01'0 0.0
2015-May-16 09:33N 67°09' E 014°01'0 0.1
2015-May-16 08:34N 67°09' E 014°01'0 0.0
2015-May-16 07:33N 67°09' E 014°01'0 0.0
2015-May-16 06:33N 67°09' E 014°01'1 1.2
2015-May-16 05:33N 67°08' E 013°58'0 0.0
2015-May-16 04:33N 67°08' E 013°58'0 0.0
2015-May-16 03:33N 67°08' E 013°58'0 0.0
2015-May-16 02:33N 67°08' E 013°58'0 0.0
2015-May-16 01:33N 67°08' E 013°58'0 0.0
2015-May-16 00:33N 67°08' E 013°58'0 0.0
2015-May-15 23:33N 67°08' E 013°58'0 0.0
2015-May-15 22:33N 67°08' E 013°58'0 0.0
2015-May-15 21:33N 67°08' E 013°58'0 0.0
2015-May-15 20:33N 67°08' E 013°58'0 0.0
2015-May-15 19:33N 67°08' E 013°58'0 0.0
2015-May-15 18:33N 67°08' E 013°58'2 1.6
2015-May-15 17:33N 67°09' E 014°02'0 0.1
2015-May-15 16:33N 67°09' E 014°02'0 0.0
2015-May-15 15:33N 67°09' E 014°02'0 0.0
2015-May-15 14:33N 67°09' E 014°02'0 0.0
2015-May-15 13:33N 67°09' E 014°02'0 0.5
2015-May-15 12:33N 67°09' E 014°02'0 0.4
2015-May-15 11:34N 67°09' E 014°01'0 0.0
2015-May-15 10:33N 67°09' E 014°01'0 0.2
2015-May-15 09:33N 67°09' E 014°01'3 2.5
2015-May-15 08:33N 67°11' E 014°04'10 9.7
2015-May-15 07:33N 67°17' E 014°23'0 0.3
2015-May-15 06:33N 67°17' E 014°24'1 0.7
2015-May-15 05:33N 67°17' E 014°23'0 0.0
2015-May-15 04:33N 67°17' E 014°23'0 0.0
2015-May-15 03:34N 67°17' E 014°23'0 0.0
2015-May-15 02:34N 67°17' E 014°23'0 0.0
2015-May-15 01:34N 67°17' E 014°23'0 0.0
2015-May-15 00:33N 67°17' E 014°23'0 0.0
2015-May-14 23:34N 67°17' E 014°23'0 0.0
2015-May-14 22:34N 67°17' E 014°23'0 0.0
2015-May-14 21:33N 67°17' E 014°23'0 0.0
2015-May-14 20:33N 67°17' E 014°23'0 0.0
2015-May-14 19:34N 67°17' E 014°23'0 0.0
2015-May-14 18:33N 67°17' E 014°23'0 0.0
2015-May-14 17:33N 67°17' E 014°23'0 0.0
2015-May-14 16:33N 67°17' E 014°23'0 0.0
2015-May-14 15:33N 67°17' E 014°23'0 0.0
2015-May-14 14:33N 67°17' E 014°23'0 0.0
2015-May-14 13:33N 67°17' E 014°23'5 5.2
2015-May-14 12:33N 67°14' E 014°13'7 6.7
2015-May-14 11:33N 67°09' E 014°01'0 0.1
2015-May-14 10:33N 67°09' E 014°01'0 0.3
2015-May-14 09:33N 67°09' E 014°01'0 0.3
2015-May-14 08:33N 67°09' E 014°01'0 0.1
2015-May-14 07:33N 67°09' E 014°01'0 0.4
2015-May-14 06:33N 67°09' E 014°00'1 1.2
2015-May-14 05:33N 67°08' E 013°58'0 0.0
2015-May-14 04:33N 67°08' E 013°58'0 0.0
2015-May-14 03:33N 67°08' E 013°58'0 0.0
2015-May-14 02:32N 67°08' E 013°58'0 0.0
2015-May-14 01:33N 67°08' E 013°58'0 0.0
2015-May-14 00:32N 67°08' E 013°58'0 0.0
2015-May-13 23:33N 67°08' E 013°58'0 0.0
2015-May-13 22:33N 67°08' E 013°58'0 0.0
2015-May-13 21:33N 67°08' E 013°58'0 0.0
2015-May-13 20:33N 67°08' E 013°58'0 0.0
2015-May-13 19:33N 67°08' E 013°58'0 0.0
2015-May-13 18:33N 67°08' E 013°58'2 1.6
2015-May-13 17:33N 67°09' E 014°02'0 0.3
2015-May-13 16:33N 67°09' E 014°01'0 0.1
2015-May-13 15:33N 67°09' E 014°01'0 0.2
2015-May-13 14:33N 67°09' E 014°01'0 0.3
2015-May-13 13:32N 67°09' E 014°01'0 0.0
2015-May-13 12:33N 67°09' E 014°01'0 0.2
2015-May-13 11:33N 67°09' E 014°01'1 0.9
2015-May-13 10:34N 67°09' E 014°02'9 9.2
2015-May-13 09:33N 67°16' E 014°19'2 2.0
2015-May-13 08:33N 67°17' E 014°23'0 0.4
2015-May-13 07:34N 67°17' E 014°22'0 0.0
2015-May-13 06:34N 67°17' E 014°22'0 0.0
2015-May-13 05:33N 67°17' E 014°22'0 0.0
2015-May-13 04:33N 67°17' E 014°22'0 0.0
2015-May-13 03:33N 67°17' E 014°22'0 0.0
2015-May-13 02:34N 67°17' E 014°22'0 0.0
2015-May-13 01:33N 67°17' E 014°22'0 0.0
2015-May-13 00:33N 67°17' E 014°22'0 0.0
2015-May-12 23:33N 67°17' E 014°22'0 0.0
2015-May-12 22:34N 67°17' E 014°22'0 0.0
2015-May-12 21:33N 67°17' E 014°22'0 0.0
2015-May-12 20:33N 67°17' E 014°22'0 0.0
2015-May-12 19:33N 67°17' E 014°22'0 0.0
2015-May-12 18:33N 67°17' E 014°22'0 0.0
2015-May-12 17:33N 67°17' E 014°22'6 6.4
2015-May-12 16:34N 67°13' E 014°10'5 5.4
2015-May-12 15:34N 67°09' E 014°01'0 0.1
2015-May-12 14:33N 67°09' E 014°01'0 0.1
2015-May-12 13:33N 67°09' E 014°01'0 0.1
2015-May-12 12:33N 67°09' E 014°01'1 0.5
2015-May-12 11:33N 67°09' E 014°00'0 0.2
2015-May-12 10:33N 67°09' E 014°01'0 0.4
2015-May-12 09:33N 67°09' E 014°01'0 0.1
2015-May-12 08:32N 67°09' E 014°01'0 0.1
2015-May-12 07:33N 67°09' E 014°01'1 0.6
2015-May-12 06:34N 67°09' E 014°00'0 0.0
2015-May-12 05:34N 67°09' E 014°00'0 0.0
2015-May-12 04:33N 67°09' E 014°00'0 0.0
2015-May-12 03:34N 67°09' E 014°00'0 0.0
2015-May-12 02:34N 67°09' E 014°00'0 0.0
2015-May-12 01:33N 67°09' E 014°00'0 0.0
2015-May-12 00:33N 67°09' E 014°00'0 0.0
2015-May-11 23:33N 67°09' E 014°00'0 0.0
2015-May-11 22:33N 67°09' E 014°00'0 0.0
2015-May-11 21:33N 67°09' E 014°00'0 0.0
2015-May-11 20:33N 67°09' E 014°00'0 0.0
2015-May-11 19:34N 67°09' E 014°00'0 0.0
2015-May-11 18:33N 67°09' E 014°00'0 0.0
2015-May-11 17:33N 67°09' E 014°00'0 0.4
2015-May-11 16:33N 67°09' E 014°01'0 0.3
2015-May-11 15:33N 67°09' E 014°02'1 0.6
2015-May-11 14:33N 67°09' E 014°00'1 0.7
2015-May-11 13:33N 67°09' E 014°02'2 2.4
2015-May-11 12:33N 67°07' E 013°58'10 9.9
2015-May-11 11:33N 67°00' E 013°39'33 9.4
2015-May-11 08:03N 66°31' E 012°58'25 1.5
2015-May-10 14:31N 66°54' E 013°26'8 7.9
2015-May-10 13:33N 66°60' E 013°39'9 9.0
2015-May-10 12:33N 67°06' E 013°56'2 2.4
2015-May-10 11:33N 67°08' E 013°58'1 0.5
2015-May-10 10:33N 67°08' E 013°60'1 1.0
2015-May-10 09:33N 67°09' E 014°00'0 0.2
2015-May-10 08:33N 67°09' E 014°01'0 0.2
2015-May-10 07:33N 67°09' E 014°00'0 0.3
2015-May-10 06:33N 67°09' E 014°00'0 0.0
2015-May-10 05:33N 67°09' E 014°00'0 0.0
2015-May-10 04:34N 67°09' E 014°00'0 0.0
2015-May-10 03:33N 67°09' E 014°00'0 0.0
2015-May-10 02:34N 67°09' E 014°00'0 0.0
2015-May-10 01:33N 67°09' E 014°00'0 0.0
2015-May-10 00:24N 67°09' E 014°00'0 0.0
2015-May-09 23:33N 67°09' E 014°00'0 0.0
2015-May-09 22:29N 67°09' E 014°00'0 0.0
2015-May-09 21:30N 67°09' E 014°00'0 0.0
2015-May-09 20:26N 67°09' E 014°00'0 0.0
2015-May-09 19:33N 67°09' E 014°00'0 0.0
2015-May-09 18:33N 67°09' E 014°00'0 0.0
2015-May-09 17:33N 67°09' E 014°00'0 0.0
2015-May-09 16:34N 67°09' E 014°00'  
Track history (hours):
 
Tides and Currents Weather Stations Pressure Air Temp Water Temp Dewpoint Dewpoint Depression Visibility Wind Speed Wind Dir Waves Ship Positions

Nautilus Survey

Last reported at 2015-May-19 16:27 UTC. Time now 2015-May-24 17:22 UTC.
Position N 66°51' E 013°34'.

Length 22 m; draft 2 m.

Type: Dredging. MMSI: 259464000.

Date/timePositionNaut miles runAvg speedWind from/ knotsBaromVisibWave heightAir tempDewpointWater temp
2015-May-19 16:27N 66°51' E 013°34'8 8.3
2015-May-19 15:33N 66°59' E 013°34'10 9.7
2015-May-19 14:33N 67°04' E 013°54'5 5.3
2015-May-19 13:33N 67°09' E 014°01'1 1.3
2015-May-19 12:33N 67°08' E 013°58'0 0.1
2015-May-19 11:33N 67°08' E 013°58'1 1.2
2015-May-19 10:33N 67°09' E 014°00'0 0.3
2015-May-19 09:33N 67°09' E 014°01'0 0.2
2015-May-19 08:33N 67°09' E 014°01'0 0.1
2015-May-19 07:34N 67°09' E 014°01'0 0.1
2015-May-19 06:33N 67°09' E 014°01'1 1.2
2015-May-19 05:33N 67°08' E 013°58'0 0.0
2015-May-19 04:33N 67°08' E 013°58'0 0.0
2015-May-19 03:33N 67°08' E 013°58'0 0.0
2015-May-19 02:33N 67°08' E 013°58'0 0.0
2015-May-19 01:33N 67°08' E 013°58'0 0.0
2015-May-19 00:33N 67°08' E 013°58'0 0.0
2015-May-18 23:33N 67°08' E 013°58'0 0.0
2015-May-18 22:33N 67°08' E 013°58'0 0.0
2015-May-18 21:34N 67°08' E 013°58'0 0.0
2015-May-18 20:33N 67°08' E 013°58'0 0.0
2015-May-18 19:33N 67°08' E 013°58'0 0.0
2015-May-18 18:33N 67°08' E 013°58'1 1.4
2015-May-18 17:33N 67°09' E 014°01'0 0.3
2015-May-18 16:33N 67°09' E 014°02'0 0.4
2015-May-18 15:33N 67°09' E 014°01'0 0.3
2015-May-18 14:33N 67°09' E 014°01'0 0.0
2015-May-18 13:33N 67°09' E 014°01'0 0.0
2015-May-18 12:33N 67°09' E 014°01'0 0.1
2015-May-18 11:34N 67°09' E 014°00'0 0.5
2015-May-18 10:34N 67°09' E 014°02'0 0.2
2015-May-18 09:33N 67°09' E 014°02'1 0.6
2015-May-18 08:33N 67°09' E 014°01'0 0.1
2015-May-18 07:33N 67°09' E 014°01'0 0.3
2015-May-18 06:34N 67°09' E 014°01'0 0.2
2015-May-18 05:34N 67°09' E 014°01'0 0.0
2015-May-18 04:34N 67°09' E 014°01'0 0.0
2015-May-18 03:33N 67°09' E 014°01'0 0.0
2015-May-18 02:33N 67°09' E 014°01'0 0.0
2015-May-18 01:33N 67°09' E 014°01'0 0.0
2015-May-18 00:33N 67°09' E 014°01'0 0.0
2015-May-17 23:33N 67°09' E 014°01'0 0.0
2015-May-17 22:33N 67°09' E 014°01'0 0.0
2015-May-17 21:33N 67°09' E 014°01'0 0.0
2015-May-17 20:33N 67°09' E 014°01'0 0.0
2015-May-17 19:34N 67°09' E 014°01'0 0.0
2015-May-17 18:33N 67°09' E 014°01'0 0.0
2015-May-17 17:34N 67°09' E 014°01'0 0.2
2015-May-17 16:33N 67°09' E 014°01'0 0.2
2015-May-17 15:33N 67°09' E 014°01'0 0.1
2015-May-17 14:31N 67°09' E 014°01'0 0.0
2015-May-17 13:34N 67°09' E 014°01'0 0.2
2015-May-17 12:33N 67°09' E 014°01'0 0.3
2015-May-17 11:33N 67°09' E 014°01'0 0.5
2015-May-17 10:33N 67°09' E 014°02'0 0.1
2015-May-17 09:33N 67°09' E 014°02'0 0.3
2015-May-17 08:33N 67°09' E 014°01'0 0.2
2015-May-17 07:33N 67°09' E 014°00'0 0.1
2015-May-17 06:33N 67°09' E 014°01'0 0.3
2015-May-17 05:34N 67°09' E 014°01'0 0.0
2015-May-17 04:33N 67°09' E 014°01'0 0.0
2015-May-17 03:33N 67°09' E 014°01'0 0.0
2015-May-17 02:33N 67°09' E 014°01'0 0.0
2015-May-17 01:34N 67°09' E 014°01'0 0.0
2015-May-17 00:34N 67°09' E 014°01'0 0.0
2015-May-16 23:33N 67°09' E 014°01'0 0.0
2015-May-16 22:33N 67°09' E 014°01'0 0.0
2015-May-16 21:33N 67°09' E 014°01'0 0.0
2015-May-16 20:34N 67°09' E 014°01'0 0.0
2015-May-16 19:33N 67°09' E 014°01'0 0.0
2015-May-16 18:34N 67°09' E 014°01'1 0.6
2015-May-16 17:33N 67°09' E 014°02'0 0.1
2015-May-16 16:33N 67°09' E 014°01'0 0.4
2015-May-16 15:33N 67°09' E 014°01'0 0.1
2015-May-16 14:33N 67°09' E 014°01'0 0.2
2015-May-16 13:33N 67°09' E 014°01'0 0.3
2015-May-16 12:33N 67°09' E 014°02'1 1.1
2015-May-16 11:33N 67°08' E 013°59'1 1.0
2015-May-16 10:33N 67°09' E 014°01'0 0.0
2015-May-16 09:33N 67°09' E 014°01'0 0.1
2015-May-16 08:34N 67°09' E 014°01'0 0.0
2015-May-16 07:33N 67°09' E 014°01'0 0.0
2015-May-16 06:33N 67°09' E 014°01'1 1.2
2015-May-16 05:33N 67°08' E 013°58'0 0.0
2015-May-16 04:33N 67°08' E 013°58'0 0.0
2015-May-16 03:33N 67°08' E 013°58'0 0.0
2015-May-16 02:33N 67°08' E 013°58'0 0.0
2015-May-16 01:33N 67°08' E 013°58'0 0.0
2015-May-16 00:33N 67°08' E 013°58'0 0.0
2015-May-15 23:33N 67°08' E 013°58'0 0.0
2015-May-15 22:33N 67°08' E 013°58'0 0.0
2015-May-15 21:33N 67°08' E 013°58'0 0.0
2015-May-15 20:33N 67°08' E 013°58'0 0.0
2015-May-15 19:33N 67°08' E 013°58'0 0.0
2015-May-15 18:33N 67°08' E 013°58'2 1.6
2015-May-15 17:33N 67°09' E 014°02'0 0.1
2015-May-15 16:33N 67°09' E 014°02'0 0.0
2015-May-15 15:33N 67°09' E 014°02'0 0.0
2015-May-15 14:33N 67°09' E 014°02'0 0.0
2015-May-15 13:33N 67°09' E 014°02'0 0.5
2015-May-15 12:33N 67°09' E 014°02'0 0.4
2015-May-15 11:34N 67°09' E 014°01'0 0.0
2015-May-15 10:33N 67°09' E 014°01'0 0.2
2015-May-15 09:33N 67°09' E 014°01'3 2.5
2015-May-15 08:33N 67°11' E 014°04'10 9.7
2015-May-15 07:33N 67°17' E 014°23'0 0.3
2015-May-15 06:33N 67°17' E 014°24'1 0.7
2015-May-15 05:33N 67°17' E 014°23'0 0.0
2015-May-15 04:33N 67°17' E 014°23'0 0.0
2015-May-15 03:34N 67°17' E 014°23'0 0.0
2015-May-15 02:34N 67°17' E 014°23'0 0.0
2015-May-15 01:34N 67°17' E 014°23'0 0.0
2015-May-15 00:33N 67°17' E 014°23'0 0.0
2015-May-14 23:34N 67°17' E 014°23'0 0.0
2015-May-14 22:34N 67°17' E 014°23'0 0.0
2015-May-14 21:33N 67°17' E 014°23'0 0.0
2015-May-14 20:33N 67°17' E 014°23'0 0.0
2015-May-14 19:34N 67°17' E 014°23'0 0.0
2015-May-14 18:33N 67°17' E 014°23'0 0.0
2015-May-14 17:33N 67°17' E 014°23'0 0.0
2015-May-14 16:33N 67°17' E 014°23'0 0.0
2015-May-14 15:33N 67°17' E 014°23'0 0.0
2015-May-14 14:33N 67°17' E 014°23'0 0.0
2015-May-14 13:33N 67°17' E 014°23'5 5.2
2015-May-14 12:33N 67°14' E 014°13'7 6.7
2015-May-14 11:33N 67°09' E 014°01'0 0.1
2015-May-14 10:33N 67°09' E 014°01'0 0.3
2015-May-14 09:33N 67°09' E 014°01'0 0.3
2015-May-14 08:33N 67°09' E 014°01'0 0.1
2015-May-14 07:33N 67°09' E 014°01'0 0.4
2015-May-14 06:33N 67°09' E 014°00'1 1.2
2015-May-14 05:33N 67°08' E 013°58'0 0.0
2015-May-14 04:33N 67°08' E 013°58'0 0.0
2015-May-14 03:33N 67°08' E 013°58'0 0.0
2015-May-14 02:32N 67°08' E 013°58'0 0.0
2015-May-14 01:33N 67°08' E 013°58'0 0.0
2015-May-14 00:32N 67°08' E 013°58'0 0.0
2015-May-13 23:33N 67°08' E 013°58'0 0.0
2015-May-13 22:33N 67°08' E 013°58'0 0.0
2015-May-13 21:33N 67°08' E 013°58'0 0.0
2015-May-13 20:33N 67°08' E 013°58'0 0.0
2015-May-13 19:33N 67°08' E 013°58'0 0.0
2015-May-13 18:33N 67°08' E 013°58'2 1.6
2015-May-13 17:33N 67°09' E 014°02'0 0.3
2015-May-13 16:33N 67°09' E 014°01'0 0.1
2015-May-13 15:33N 67°09' E 014°01'0 0.2
2015-May-13 14:33N 67°09' E 014°01'0 0.3
2015-May-13 13:32N 67°09' E 014°01'0 0.0
2015-May-13 12:33N 67°09' E 014°01'0 0.2
2015-May-13 11:33N 67°09' E 014°01'1 0.9
2015-May-13 10:34N 67°09' E 014°02'9 9.2
2015-May-13 09:33N 67°16' E 014°19'2 2.0
2015-May-13 08:33N 67°17' E 014°23'0 0.4
2015-May-13 07:34N 67°17' E 014°22'0 0.0
2015-May-13 06:34N 67°17' E 014°22'0 0.0
2015-May-13 05:33N 67°17' E 014°22'0 0.0
2015-May-13 04:33N 67°17' E 014°22'0 0.0
2015-May-13 03:33N 67°17' E 014°22'0 0.0
2015-May-13 02:34N 67°17' E 014°22'0 0.0
2015-May-13 01:33N 67°17' E 014°22'0 0.0
2015-May-13 00:33N 67°17' E 014°22'0 0.0
2015-May-12 23:33N 67°17' E 014°22'0 0.0
2015-May-12 22:34N 67°17' E 014°22'0 0.0
2015-May-12 21:33N 67°17' E 014°22'0 0.0
2015-May-12 20:33N 67°17' E 014°22'0 0.0
2015-May-12 19:33N 67°17' E 014°22'0 0.0
2015-May-12 18:33N 67°17' E 014°22'0 0.0
2015-May-12 17:33N 67°17' E 014°22'6 6.4
2015-May-12 16:34N 67°13' E 014°10'5 5.4
2015-May-12 15:34N 67°09' E 014°01'0 0.1
2015-May-12 14:33N 67°09' E 014°01'0 0.1
2015-May-12 13:33N 67°09' E 014°01'0 0.1
2015-May-12 12:33N 67°09' E 014°01'1 0.5
2015-May-12 11:33N 67°09' E 014°00'0 0.2
2015-May-12 10:33N 67°09' E 014°01'0 0.4
2015-May-12 09:33N 67°09' E 014°01'0 0.1
2015-May-12 08:32N 67°09' E 014°01'0 0.1
2015-May-12 07:33N 67°09' E 014°01'1 0.6
2015-May-12 06:34N 67°09' E 014°00'0 0.0
2015-May-12 05:34N 67°09' E 014°00'0 0.0
2015-May-12 04:33N 67°09' E 014°00'0 0.0
2015-May-12 03:34N 67°09' E 014°00'0 0.0
2015-May-12 02:34N 67°09' E 014°00'0 0.0
2015-May-12 01:33N 67°09' E 014°00'0 0.0
2015-May-12 00:33N 67°09' E 014°00'0 0.0
2015-May-11 23:33N 67°09' E 014°00'0 0.0
2015-May-11 22:33N 67°09' E 014°00'0 0.0
2015-May-11 21:33N 67°09' E 014°00'0 0.0
2015-May-11 20:33N 67°09' E 014°00'0 0.0
2015-May-11 19:34N 67°09' E 014°00'0 0.0
2015-May-11 18:33N 67°09' E 014°00'0 0.0
2015-May-11 17:33N 67°09' E 014°00'0 0.4
2015-May-11 16:33N 67°09' E 014°01'0 0.3
2015-May-11 15:33N 67°09' E 014°02'1 0.6
2015-May-11 14:33N 67°09' E 014°00'1 0.7
2015-May-11 13:33N 67°09' E 014°02'2 2.4
2015-May-11 12:33N 67°07' E 013°58'10 9.9
2015-May-11 11:33N 67°00' E 013°39'33 9.4
2015-May-11 08:03N 66°31' E 012°58'25 1.5
2015-May-10 14:31N 66°54' E 013°26'8 7.9
2015-May-10 13:33N 66°60' E 013°39'9 9.0
2015-May-10 12:33N 67°06' E 013°56'2 2.4
2015-May-10 11:33N 67°08' E 013°58'1 0.5
2015-May-10 10:33N 67°08' E 013°60'1 1.0
2015-May-10 09:33N 67°09' E 014°00'0 0.2
2015-May-10 08:33N 67°09' E 014°01'0 0.2
2015-May-10 07:33N 67°09' E 014°00'0 0.3
2015-May-10 06:33N 67°09' E 014°00'0 0.0
2015-May-10 05:33N 67°09' E 014°00'0 0.0
2015-May-10 04:34N 67°09' E 014°00'0 0.0
2015-May-10 03:33N 67°09' E 014°00'0 0.0
2015-May-10 02:34N 67°09' E 014°00'0 0.0
2015-May-10 01:33N 67°09' E 014°00'0 0.0
2015-May-10 00:24N 67°09' E 014°00'0 0.0
2015-May-09 23:33N 67°09' E 014°00'0 0.0
2015-May-09 22:29N 67°09' E 014°00'0 0.0
2015-May-09 21:30N 67°09' E 014°00'0 0.0
2015-May-09 20:26N 67°09' E 014°00'0 0.0
2015-May-09 19:33N 67°09' E 014°00'0 0.0
2015-May-09 18:33N 67°09' E 014°00'0 0.0
2015-May-09 17:33N 67°09' E 014°00'0 0.0
2015-May-09 16:34N 67°09' E 014°00'  

Dump ship's entire track history